createdAt,value
2023-09-06T00:00:26.802Z,2.60
2023-09-06T00:01:09.494Z,2.40
2023-09-06T00:01:51.618Z,2.50
2023-09-06T00:02:33.448Z,2.50
2023-09-06T00:03:15.722Z,2.30
2023-09-06T00:03:57.996Z,2.60
2023-09-06T00:04:40.110Z,2.60
2023-09-06T00:05:24.254Z,2.63
2023-09-06T00:06:06.576Z,2.40
2023-09-06T00:06:48.527Z,2.50
2023-09-06T00:07:30.558Z,2.75
2023-09-06T00:08:15.968Z,2.40
2023-09-06T00:08:58.250Z,2.20
2023-09-06T00:09:41.533Z,2.90
2023-09-06T00:10:23.510Z,2.70
2023-09-06T00:11:08.164Z,2.70
2023-09-06T00:11:50.489Z,2.60
2023-09-06T00:12:32.431Z,2.60
2023-09-06T00:13:14.909Z,2.22
2023-09-06T00:13:57.073Z,2.70
2023-09-06T00:14:40.452Z,2.60
2023-09-06T00:15:22.506Z,2.40
2023-09-06T00:16:05.654Z,2.78
2023-09-06T00:16:48.104Z,2.80
2023-09-06T00:17:30.071Z,2.53
2023-09-06T00:18:12.455Z,2.60
2023-09-06T00:18:54.558Z,2.53
2023-09-06T00:19:37.409Z,2.40
2023-09-06T00:20:22.998Z,2.40
2023-09-06T00:21:06.953Z,2.30
2023-09-06T00:21:49.071Z,2.40
2023-09-06T00:22:33.647Z,2.70
2023-09-06T00:23:16.522Z,3.20
2023-09-06T00:24:01.742Z,2.97
2023-09-06T00:24:43.618Z,2.42
2023-09-06T00:25:27.038Z,2.22
2023-09-06T00:26:09.246Z,2.60
2023-09-06T00:26:53.693Z,2.60
2023-09-06T00:27:35.710Z,2.40
2023-09-06T00:28:18.931Z,2.50
2023-09-06T00:29:01.002Z,2.70
2023-09-06T00:29:42.975Z,2.50
2023-09-06T00:30:25.090Z,2.60
2023-09-06T00:31:07.599Z,2.50
2023-09-06T00:31:49.520Z,2.80
2023-09-06T00:32:31.686Z,2.70
2023-09-06T00:33:14.583Z,2.42
2023-09-06T00:33:56.871Z,2.67
2023-09-06T00:34:39.004Z,2.20
2023-09-06T00:35:23.840Z,2.20
2023-09-06T00:36:08.941Z,2.10
2023-09-06T00:36:51.768Z,2.35
2023-09-06T00:37:37.415Z,2.50
2023-09-06T00:38:20.676Z,2.65
2023-09-06T00:39:06.718Z,2.40
2023-09-06T00:39:51.384Z,2.60
2023-09-06T00:40:38.413Z,2.72
2023-09-06T00:41:23.461Z,2.20
2023-09-06T00:42:06.013Z,2.40
2023-09-06T00:42:53.484Z,2.60
2023-09-06T00:43:35.857Z,2.80
2023-09-06T00:44:20.242Z,2.70
2023-09-06T00:45:02.487Z,2.50
2023-09-06T00:45:46.635Z,2.70
2023-09-06T00:46:31.582Z,2.28
2023-09-06T00:47:13.893Z,2.30
2023-09-06T00:48:01.651Z,2.80
2023-09-06T00:48:44.039Z,2.20
2023-09-06T00:49:26.541Z,2.22
2023-09-06T00:50:08.704Z,2.47
2023-09-06T00:50:55.082Z,2.33
2023-09-06T00:51:37.639Z,2.53
2023-09-06T00:52:19.527Z,2.53
2023-09-06T00:53:02.385Z,2.38
2023-09-06T00:53:44.872Z,2.35
2023-09-06T00:54:26.740Z,2.60
2023-09-06T00:55:10.587Z,2.40
2023-09-06T00:55:52.739Z,2.28
2023-09-06T00:56:34.639Z,2.20
2023-09-06T00:57:17.079Z,2.80
2023-09-06T00:58:01.332Z,2.70
2023-09-06T00:58:43.405Z,2.50
2023-09-06T00:59:27.062Z,2.40
2023-09-06T01:00:15.736Z,2.60
2023-09-06T01:00:58.818Z,2.35
2023-09-06T01:01:43.610Z,2.70
2023-09-06T01:02:26.876Z,2.53
2023-09-06T01:03:09.244Z,2.60
2023-09-06T01:03:51.614Z,2.55
2023-09-06T01:04:33.993Z,2.65
2023-09-06T01:05:17.651Z,2.50
2023-09-06T01:06:06.450Z,2.55
2023-09-06T01:06:56.673Z,2.33
2023-09-06T01:07:40.002Z,2.40
2023-09-06T01:08:30.438Z,2.10
2023-09-06T01:09:12.945Z,2.30
2023-09-06T01:09:55.697Z,2.50
2023-09-06T01:10:37.633Z,2.40
2023-09-06T01:11:22.942Z,2.60
2023-09-06T01:12:05.612Z,2.47
2023-09-06T01:12:48.599Z,2.70
2023-09-06T01:13:30.658Z,2.80
2023-09-06T01:14:12.548Z,2.53
2023-09-06T01:14:54.858Z,2.35
2023-09-06T01:15:41.000Z,2.35
2023-09-06T01:16:34.673Z,2.28
2023-09-06T01:17:22.434Z,2.70
2023-09-06T01:18:07.497Z,2.80
2023-09-06T01:18:51.926Z,2.30
2023-09-06T01:19:37.904Z,2.35
2023-09-06T01:20:35.111Z,2.50
2023-09-06T01:21:20.585Z,2.88
2023-09-06T01:22:12.626Z,2.40
2023-09-06T01:23:08.579Z,2.53
2023-09-06T01:23:52.757Z,2.58
2023-09-06T01:24:35.717Z,2.70
2023-09-06T01:25:18.493Z,2.70
2023-09-06T01:26:00.635Z,2.75
2023-09-06T01:26:42.966Z,2.20
2023-09-06T01:27:25.588Z,2.47
2023-09-06T01:28:07.868Z,2.58
2023-09-06T01:28:50.602Z,2.67
2023-09-06T01:29:32.644Z,2.80
2023-09-06T01:30:15.616Z,2.70
2023-09-06T01:31:00.421Z,2.60
2023-09-06T01:31:42.752Z,2.35
2023-09-06T01:32:27.573Z,2.30
2023-09-06T01:33:09.662Z,2.20
2023-09-06T01:33:51.785Z,2.50
2023-09-06T01:34:33.980Z,2.90
2023-09-06T01:35:16.570Z,2.78
2023-09-06T01:35:59.014Z,2.50
2023-09-06T01:36:41.670Z,2.50
2023-09-06T01:37:23.530Z,2.40
2023-09-06T01:38:05.661Z,2.15
2023-09-06T01:38:47.532Z,2.40
2023-09-06T01:39:29.571Z,2.60
2023-09-06T01:40:18.583Z,2.58
2023-09-06T01:41:03.417Z,2.80
2023-09-06T01:41:47.702Z,2.60
2023-09-06T01:42:29.555Z,2.60
2023-09-06T01:43:11.762Z,2.20
2023-09-06T01:43:55.964Z,2.92
2023-09-06T01:44:38.191Z,2.88
2023-09-06T01:45:20.244Z,2.65
2023-09-06T01:46:02.576Z,2.70
2023-09-06T01:46:44.797Z,2.70
2023-09-06T01:47:28.498Z,2.72
2023-09-06T01:48:10.682Z,2.40
2023-09-06T01:48:52.675Z,2.60
2023-09-06T01:49:34.651Z,2.42
2023-09-06T01:50:20.608Z,2.60
2023-09-06T01:51:05.038Z,2.60
2023-09-06T01:51:49.588Z,2.55
2023-09-06T01:52:31.641Z,2.30
2023-09-06T01:53:14.762Z,2.50
2023-09-06T01:53:56.747Z,2.70
2023-09-06T01:54:38.583Z,2.90
2023-09-06T01:55:22.402Z,2.40
2023-09-06T01:56:05.796Z,1.92
2023-09-06T01:56:48.001Z,2.60
2023-09-06T01:57:30.126Z,2.40
2023-09-06T01:58:13.543Z,2.65
2023-09-06T01:58:55.761Z,2.65
2023-09-06T01:59:37.980Z,2.60
2023-09-06T02:00:22.728Z,2.67
2023-09-06T02:01:08.825Z,2.50
2023-09-06T02:01:55.838Z,2.10
2023-09-06T02:02:38.081Z,2.38
2023-09-06T02:03:20.648Z,2.60
2023-09-06T02:04:06.596Z,2.53
2023-09-06T02:04:48.640Z,2.00
2023-09-06T02:05:33.609Z,2.40
2023-09-06T02:06:15.501Z,2.53
2023-09-06T02:06:57.729Z,2.47
2023-09-06T02:07:39.952Z,2.30
2023-09-06T02:08:22.533Z,2.53
2023-09-06T02:09:04.838Z,2.78
2023-09-06T02:09:47.093Z,3.00
2023-09-06T02:10:31.584Z,2.80
2023-09-06T02:11:13.539Z,2.70
2023-09-06T02:11:56.597Z,2.65
2023-09-06T02:12:39.669Z,3.13
2023-09-06T02:13:21.725Z,3.58
2023-09-06T02:14:03.623Z,2.30
2023-09-06T02:14:45.558Z,2.50
2023-09-06T02:15:30.622Z,3.00
2023-09-06T02:16:15.643Z,2.92
2023-09-06T02:16:57.801Z,2.80
2023-09-06T02:17:40.070Z,2.95
2023-09-06T02:18:22.537Z,2.70
2023-09-06T02:19:05.887Z,2.50
2023-09-06T02:19:47.942Z,2.80
2023-09-06T02:20:29.956Z,2.55
2023-09-06T02:21:12.118Z,2.90
2023-09-06T02:21:54.198Z,2.67
2023-09-06T02:22:39.662Z,2.90
2023-09-06T02:23:21.682Z,2.50
2023-09-06T02:24:04.007Z,2.60
2023-09-06T02:24:46.153Z,2.80
2023-09-06T02:25:32.534Z,2.78
2023-09-06T02:26:16.802Z,2.85
2023-09-06T02:26:59.772Z,2.75
2023-09-06T02:27:41.776Z,2.80
2023-09-06T02:28:24.013Z,2.85
2023-09-06T02:29:06.587Z,2.63
2023-09-06T02:29:48.559Z,2.47
2023-09-06T02:30:30.841Z,2.50
2023-09-06T02:31:12.991Z,2.50
2023-09-06T02:31:55.205Z,2.50
2023-09-06T02:32:37.576Z,2.50
2023-09-06T02:33:19.871Z,2.10
2023-09-06T02:34:04.414Z,2.50
2023-09-06T02:34:48.577Z,2.50
2023-09-06T02:35:30.646Z,2.60
2023-09-06T02:36:12.608Z,3.00
2023-09-06T02:36:54.836Z,2.80
2023-09-06T02:37:37.110Z,2.58
2023-09-06T02:38:19.070Z,2.60
2023-09-06T02:39:02.574Z,2.70
2023-09-06T02:39:44.642Z,2.45
2023-09-06T02:40:26.907Z,2.50
2023-09-06T02:41:09.024Z,2.40
2023-09-06T02:41:51.104Z,2.70
2023-09-06T02:42:35.546Z,2.53
2023-09-06T02:43:17.933Z,2.60
2023-09-06T02:44:00.105Z,2.53
2023-09-06T02:44:43.121Z,2.58
2023-09-06T02:45:37.721Z,2.80
2023-09-06T02:46:20.249Z,2.50
2023-09-06T02:47:04.652Z,2.70
2023-09-06T02:47:51.201Z,2.60
2023-09-06T02:48:34.874Z,2.60
2023-09-06T02:49:19.127Z,2.70
2023-09-06T02:50:03.444Z,2.75
2023-09-06T02:50:46.414Z,2.83
2023-09-06T02:51:30.389Z,2.65
2023-09-06T02:52:31.842Z,2.70
2023-09-06T02:53:21.463Z,2.60
2023-09-06T02:54:04.035Z,2.70
2023-09-06T02:54:50.045Z,3.30
2023-09-06T02:55:38.831Z,2.83
2023-09-06T02:56:21.041Z,2.40
2023-09-06T02:57:03.590Z,2.60
2023-09-06T02:57:45.803Z,2.70
2023-09-06T02:58:28.063Z,2.80
2023-09-06T02:59:13.614Z,2.55
2023-09-06T02:59:55.706Z,2.80
2023-09-06T03:00:43.571Z,2.70
2023-09-06T03:01:25.779Z,2.70
2023-09-06T03:02:08.125Z,2.67
2023-09-06T03:02:52.034Z,2.50
2023-09-06T03:03:34.707Z,2.70
2023-09-06T03:04:16.828Z,2.87
2023-09-06T03:05:05.310Z,2.60
2023-09-06T03:05:50.564Z,2.65
2023-09-06T03:06:37.864Z,2.70
2023-09-06T03:07:22.653Z,2.83
2023-09-06T03:08:07.678Z,2.70
2023-09-06T03:08:49.828Z,2.83
2023-09-06T03:09:32.098Z,2.55
2023-09-06T03:10:14.160Z,2.70
2023-09-06T03:10:56.884Z,2.72
2023-09-06T03:11:41.865Z,2.85
2023-09-06T03:12:23.742Z,2.88
2023-09-06T03:13:06.812Z,2.50
2023-09-06T03:13:52.043Z,2.40
2023-09-06T03:14:36.912Z,2.92
2023-09-06T03:15:19.003Z,2.72
2023-09-06T03:16:01.682Z,2.75
2023-09-06T03:16:43.696Z,3.05
2023-09-06T03:17:26.083Z,2.70
2023-09-06T03:18:08.646Z,2.60
2023-09-06T03:18:50.811Z,2.50
2023-09-06T03:19:35.088Z,2.38
2023-09-06T03:20:32.740Z,3.45
2023-09-06T03:21:16.112Z,3.00
2023-09-06T03:21:58.169Z,2.50
2023-09-06T03:22:45.661Z,2.60
2023-09-06T03:23:27.966Z,2.83
2023-09-06T03:24:15.671Z,2.90
2023-09-06T03:24:58.549Z,2.63
2023-09-06T03:25:41.624Z,2.40
2023-09-06T03:26:24.101Z,2.50
2023-09-06T03:27:08.913Z,2.67
2023-09-06T03:27:53.555Z,3.10
2023-09-06T03:28:35.917Z,2.70
2023-09-06T03:29:19.043Z,2.60
2023-09-06T03:30:01.172Z,2.70
2023-09-06T03:30:43.655Z,2.72
2023-09-06T03:31:29.781Z,2.90
2023-09-06T03:32:12.767Z,3.00
2023-09-06T03:32:55.732Z,3.08
2023-09-06T03:33:42.791Z,2.92
2023-09-06T03:34:25.929Z,3.30
2023-09-06T03:35:11.775Z,2.95
2023-09-06T03:35:53.612Z,3.00
2023-09-06T03:36:36.627Z,2.83
2023-09-06T03:37:20.029Z,2.92
2023-09-06T03:38:05.890Z,2.83
2023-09-06T03:38:48.116Z,3.38
2023-09-06T03:39:32.664Z,2.70
2023-09-06T03:40:34.899Z,3.00
2023-09-06T03:41:18.736Z,2.60
2023-09-06T03:42:01.906Z,2.80
2023-09-06T03:42:44.794Z,2.90
2023-09-06T03:43:34.094Z,2.78
2023-09-06T03:44:17.597Z,2.90
2023-09-06T03:45:03.610Z,2.70
2023-09-06T03:45:52.068Z,2.90
2023-09-06T03:46:36.223Z,2.92
2023-09-06T03:47:18.376Z,3.00
2023-09-06T03:48:01.994Z,3.13
2023-09-06T03:48:46.685Z,3.20
2023-09-06T03:49:30.992Z,3.15
2023-09-06T03:50:13.907Z,2.85
2023-09-06T03:50:57.710Z,2.83
2023-09-06T03:51:39.820Z,2.80
2023-09-06T03:52:24.627Z,2.80
2023-09-06T03:53:07.030Z,3.00
2023-09-06T03:53:49.183Z,2.88
2023-09-06T03:54:31.705Z,2.60
2023-09-06T03:55:13.602Z,2.80
2023-09-06T03:55:59.251Z,2.60
2023-09-06T03:56:42.732Z,2.60
2023-09-06T03:57:24.986Z,3.10
2023-09-06T03:58:09.428Z,3.00
2023-09-06T03:58:56.836Z,2.90
2023-09-06T03:59:40.702Z,3.20
2023-09-06T04:00:25.611Z,3.10
2023-09-06T04:01:12.047Z,3.05
2023-09-06T04:01:56.973Z,2.60
2023-09-06T04:02:40.148Z,2.65
2023-09-06T04:03:24.030Z,2.58
2023-09-06T04:04:09.286Z,3.00
2023-09-06T04:04:55.917Z,2.80
2023-09-06T04:05:38.488Z,2.80
2023-09-06T04:06:20.850Z,2.83
2023-09-06T04:07:03.971Z,2.45
2023-09-06T04:07:47.141Z,2.75
2023-09-06T04:08:30.634Z,2.80
2023-09-06T04:09:17.061Z,2.73
2023-09-06T04:10:02.872Z,2.70
2023-09-06T04:10:45.789Z,2.70
2023-09-06T04:11:27.664Z,2.80
2023-09-06T04:12:09.648Z,2.70
2023-09-06T04:12:54.771Z,2.85
2023-09-06T04:13:37.106Z,2.72
2023-09-06T04:14:19.618Z,2.67
2023-09-06T04:15:01.691Z,2.60
2023-09-06T04:15:44.457Z,2.90
2023-09-06T04:16:26.817Z,3.10
2023-09-06T04:17:08.766Z,2.95
2023-09-06T04:18:03.695Z,2.90
2023-09-06T04:18:45.896Z,2.80
2023-09-06T04:19:28.486Z,2.50
2023-09-06T04:20:20.805Z,2.70
2023-09-06T04:21:09.209Z,3.05
2023-09-06T04:21:55.965Z,3.20
2023-09-06T04:22:38.936Z,3.00
2023-09-06T04:23:21.216Z,2.80
2023-09-06T04:24:05.670Z,2.65
2023-09-06T04:24:47.620Z,3.20
2023-09-06T04:25:29.984Z,2.63
2023-09-06T04:26:12.665Z,2.78
2023-09-06T04:26:55.118Z,2.97
2023-09-06T04:27:37.200Z,2.92
2023-09-06T04:28:22.567Z,3.33
2023-09-06T04:29:04.629Z,3.20
2023-09-06T04:29:46.780Z,2.45
2023-09-06T04:30:29.710Z,2.80
2023-09-06T04:31:11.776Z,3.00
2023-09-06T04:31:57.522Z,2.95
2023-09-06T04:32:39.693Z,2.80
2023-09-06T04:33:21.700Z,2.75
2023-09-06T04:34:07.684Z,2.90
2023-09-06T04:34:49.943Z,3.40
2023-09-06T04:35:39.570Z,2.78
2023-09-06T04:36:21.814Z,2.80
2023-09-06T04:37:04.047Z,3.10
2023-09-06T04:37:46.935Z,2.70
2023-09-06T04:38:28.964Z,2.50
2023-09-06T04:39:11.635Z,3.03
2023-09-06T04:39:56.910Z,2.80
2023-09-06T04:40:39.615Z,3.00
2023-09-06T04:41:21.790Z,2.72
2023-09-06T04:42:04.013Z,2.70
2023-09-06T04:42:46.534Z,2.72
2023-09-06T04:43:31.842Z,2.75
2023-09-06T04:44:13.769Z,2.90
2023-09-06T04:44:55.722Z,3.10
2023-09-06T04:45:40.762Z,2.97
2023-09-06T04:46:22.873Z,2.70
2023-09-06T04:47:04.979Z,2.90
2023-09-06T04:47:47.175Z,3.10
2023-09-06T04:48:29.579Z,3.10
2023-09-06T04:49:12.193Z,3.10
2023-09-06T04:49:57.110Z,3.28
2023-09-06T04:50:40.280Z,3.03
2023-09-06T04:51:24.665Z,3.25
2023-09-06T04:52:06.694Z,3.35
2023-09-06T04:52:51.977Z,2.80
2023-09-06T04:53:34.708Z,3.08
2023-09-06T04:54:16.985Z,3.35
2023-09-06T04:55:02.029Z,3.10
2023-09-06T04:55:44.046Z,3.58
2023-09-06T04:56:27.071Z,3.55
2023-09-06T04:57:12.013Z,3.30
2023-09-06T04:57:55.207Z,3.20
2023-09-06T04:58:37.788Z,2.92
2023-09-06T04:59:19.703Z,2.90
2023-09-06T05:00:01.770Z,3.05
2023-09-06T05:00:46.039Z,3.38
2023-09-06T05:01:28.363Z,3.08
2023-09-06T05:02:12.754Z,2.78
2023-09-06T05:02:54.712Z,3.10
2023-09-06T05:03:37.559Z,3.45
2023-09-06T05:04:22.535Z,3.40
2023-09-06T05:05:05.132Z,3.20
2023-09-06T05:05:50.580Z,3.70
2023-09-06T05:06:32.662Z,3.20
2023-09-06T05:07:14.616Z,3.30
2023-09-06T05:07:56.892Z,3.60
2023-09-06T05:08:39.207Z,3.22
2023-09-06T05:09:23.551Z,3.30
2023-09-06T05:10:05.809Z,3.30
2023-09-06T05:10:52.906Z,3.20
2023-09-06T05:11:37.548Z,3.05
2023-09-06T05:12:21.888Z,3.40
2023-09-06T05:13:04.604Z,3.20
2023-09-06T05:13:46.921Z,3.33
2023-09-06T05:14:30.858Z,3.55
2023-09-06T05:15:13.911Z,4.00
2023-09-06T05:16:02.834Z,3.10
2023-09-06T05:16:45.038Z,3.63
2023-09-06T05:17:27.182Z,3.60
2023-09-06T05:18:09.744Z,3.55
2023-09-06T05:18:52.246Z,3.40
2023-09-06T05:19:34.643Z,4.00
2023-09-06T05:20:32.646Z,3.10
2023-09-06T05:21:14.721Z,3.30
2023-09-06T05:21:56.765Z,3.50
2023-09-06T05:22:38.727Z,3.30
2023-09-06T05:23:20.802Z,3.30
2023-09-06T05:24:02.696Z,3.80
2023-09-06T05:24:46.971Z,3.40
2023-09-06T05:25:29.005Z,3.15
2023-09-06T05:26:11.643Z,3.70
2023-09-06T05:26:53.985Z,3.50
2023-09-06T05:27:36.235Z,3.03
2023-09-06T05:28:18.625Z,3.00
2023-09-06T05:29:00.746Z,3.30
2023-09-06T05:29:42.680Z,3.20
2023-09-06T05:30:25.245Z,3.80
2023-09-06T05:31:07.621Z,3.42
2023-09-06T05:31:49.643Z,3.10
2023-09-06T05:32:31.616Z,3.25
2023-09-06T05:33:17.651Z,3.10
2023-09-06T05:33:59.739Z,3.80
2023-09-06T05:34:41.616Z,3.50
2023-09-06T05:35:24.670Z,3.55
2023-09-06T05:36:09.994Z,3.20
2023-09-06T05:36:52.579Z,3.30
2023-09-06T05:37:34.901Z,3.10
2023-09-06T05:38:17.156Z,2.92
2023-09-06T05:38:59.231Z,2.85
2023-09-06T05:39:41.670Z,3.05
2023-09-06T05:40:24.476Z,3.00
2023-09-06T05:41:07.846Z,3.30
2023-09-06T05:41:51.964Z,3.10
2023-09-06T05:42:36.875Z,3.20
2023-09-06T05:43:18.760Z,3.40
2023-09-06T05:44:01.103Z,3.47
2023-09-06T05:44:45.755Z,3.08
2023-09-06T05:45:28.618Z,3.22
2023-09-06T05:46:29.778Z,3.45
2023-09-06T05:47:13.102Z,3.42
2023-09-06T05:47:58.083Z,3.70
2023-09-06T05:48:40.228Z,3.10
2023-09-06T05:49:25.127Z,3.20
2023-09-06T05:50:10.542Z,2.92
2023-09-06T05:50:54.830Z,3.03
2023-09-06T05:51:37.169Z,2.55
2023-09-06T05:52:21.920Z,3.10
2023-09-06T05:53:04.180Z,2.95
2023-09-06T05:53:48.752Z,3.22
2023-09-06T05:54:30.764Z,3.20
2023-09-06T05:55:12.753Z,3.40
2023-09-06T05:55:54.719Z,3.33
2023-09-06T05:56:36.744Z,2.90
2023-09-06T05:57:19.675Z,2.85
2023-09-06T05:58:01.924Z,2.63
2023-09-06T05:58:43.762Z,2.83
2023-09-06T05:59:26.277Z,3.42
2023-09-06T06:00:14.302Z,3.60
2023-09-06T06:01:00.547Z,3.70
2023-09-06T06:01:42.797Z,3.38
2023-09-06T06:02:25.950Z,3.10
2023-09-06T06:03:08.736Z,3.30
2023-09-06T06:03:50.828Z,3.20
2023-09-06T06:04:32.754Z,2.90
2023-09-06T06:05:16.340Z,3.08
2023-09-06T06:05:58.250Z,3.20
2023-09-06T06:06:40.153Z,3.63
2023-09-06T06:07:22.565Z,3.22
2023-09-06T06:08:04.750Z,3.55
2023-09-06T06:08:47.008Z,3.70
2023-09-06T06:09:28.985Z,3.40
2023-09-06T06:10:14.180Z,3.00
2023-09-06T06:10:57.669Z,3.08
2023-09-06T06:11:41.261Z,3.20
2023-09-06T06:12:23.965Z,3.42
2023-09-06T06:13:06.358Z,3.35
2023-09-06T06:13:56.287Z,3.00
2023-09-06T06:14:39.092Z,3.50
2023-09-06T06:15:21.206Z,3.10
2023-09-06T06:16:05.728Z,3.15
2023-09-06T06:16:47.968Z,3.45
2023-09-06T06:17:30.038Z,3.00
2023-09-06T06:18:13.324Z,3.10
2023-09-06T06:18:55.191Z,3.20
2023-09-06T06:19:37.868Z,2.90
2023-09-06T06:20:25.076Z,3.13
2023-09-06T06:21:13.448Z,3.70
2023-09-06T06:21:57.492Z,3.80
2023-09-06T06:22:41.115Z,3.45
2023-09-06T06:23:23.258Z,3.40
2023-09-06T06:24:06.600Z,3.50
2023-09-06T06:24:48.922Z,3.20
2023-09-06T06:25:31.370Z,3.00
2023-09-06T06:26:16.765Z,3.40
2023-09-06T06:27:01.638Z,3.40
2023-09-06T06:27:44.058Z,3.45
2023-09-06T06:28:26.433Z,3.15
2023-09-06T06:29:08.699Z,3.40
2023-09-06T06:29:50.840Z,3.33
2023-09-06T06:30:33.124Z,3.50
2023-09-06T06:31:15.652Z,3.63
2023-09-06T06:31:57.834Z,3.60
2023-09-06T06:32:39.792Z,3.60
2023-09-06T06:33:21.744Z,2.97
2023-09-06T06:34:03.644Z,3.03
2023-09-06T06:34:48.114Z,3.20
2023-09-06T06:35:30.154Z,2.60
2023-09-06T06:36:12.210Z,3.20
2023-09-06T06:36:54.153Z,3.30
2023-09-06T06:37:38.725Z,3.17
2023-09-06T06:38:20.829Z,2.90
2023-09-06T06:39:02.717Z,2.85
2023-09-06T06:39:44.911Z,3.40
2023-09-06T06:40:27.540Z,3.63
2023-09-06T06:41:23.773Z,3.22
2023-09-06T06:42:05.957Z,3.30
2023-09-06T06:42:47.775Z,3.60
2023-09-06T06:43:29.650Z,2.92
2023-09-06T06:44:11.752Z,3.13
2023-09-06T06:44:53.684Z,3.42
2023-09-06T06:45:36.272Z,3.00
2023-09-06T06:46:25.709Z,3.10
2023-09-06T06:47:08.095Z,3.20
2023-09-06T06:47:50.149Z,3.35
2023-09-06T06:48:32.217Z,3.13
2023-09-06T06:49:14.160Z,3.10
2023-09-06T06:49:56.692Z,3.10
2023-09-06T06:50:38.620Z,3.10
2023-09-06T06:51:22.904Z,3.28
2023-09-06T06:52:05.143Z,2.90
2023-09-06T06:52:47.642Z,3.30
2023-09-06T06:53:29.986Z,3.13
2023-09-06T06:54:15.791Z,2.90
2023-09-06T06:55:00.687Z,3.05
2023-09-06T06:55:42.911Z,3.15
2023-09-06T06:56:25.233Z,2.80
2023-09-06T06:57:07.174Z,2.90
2023-09-06T06:57:51.670Z,2.63
2023-09-06T06:58:33.626Z,2.60
2023-09-06T06:59:15.820Z,3.20
2023-09-06T06:59:59.977Z,3.10
2023-09-06T07:00:42.174Z,2.90
2023-09-06T07:01:28.146Z,2.70
2023-09-06T07:02:10.383Z,3.15
2023-09-06T07:02:52.792Z,3.00
2023-09-06T07:03:35.262Z,2.80
2023-09-06T07:04:17.693Z,3.30
2023-09-06T07:04:59.683Z,3.00
2023-09-06T07:05:41.814Z,3.10
2023-09-06T07:06:26.666Z,3.20
2023-09-06T07:07:08.915Z,3.65
2023-09-06T07:07:51.017Z,3.50
2023-09-06T07:08:33.040Z,3.28
2023-09-06T07:09:15.674Z,3.10
2023-09-06T07:09:57.917Z,2.80
2023-09-06T07:10:39.736Z,2.60
2023-09-06T07:11:22.637Z,2.80
2023-09-06T07:12:05.781Z,3.17
2023-09-06T07:12:47.901Z,3.55
2023-09-06T07:13:30.268Z,3.20
2023-09-06T07:14:12.693Z,3.00
2023-09-06T07:14:55.325Z,3.20
2023-09-06T07:15:37.240Z,3.30
2023-09-06T07:16:20.900Z,3.20
2023-09-06T07:17:03.637Z,3.00
2023-09-06T07:17:45.918Z,3.17
2023-09-06T07:18:28.335Z,2.85
2023-09-06T07:19:10.801Z,4.20
2023-09-06T07:19:52.732Z,3.67
2023-09-06T07:20:34.666Z,3.10
2023-09-06T07:21:17.696Z,3.40
2023-09-06T07:22:01.590Z,3.40
2023-09-06T07:22:43.757Z,3.03
2023-09-06T07:23:27.580Z,2.97
2023-09-06T07:24:11.164Z,3.00
2023-09-06T07:24:53.310Z,3.03
2023-09-06T07:25:35.286Z,2.97
2023-09-06T07:26:17.331Z,3.10
2023-09-06T07:26:59.208Z,3.30
2023-09-06T07:27:43.499Z,3.30
2023-09-06T07:28:25.715Z,3.15
2023-09-06T07:29:07.660Z,3.40
2023-09-06T07:29:50.068Z,3.00
2023-09-06T07:30:35.401Z,3.00
2023-09-06T07:31:18.921Z,2.97
2023-09-06T07:32:04.372Z,3.20
2023-09-06T07:32:49.175Z,2.80
2023-09-06T07:33:31.687Z,3.30
2023-09-06T07:34:13.712Z,3.20
2023-09-06T07:34:55.961Z,2.90
2023-09-06T07:35:37.888Z,3.25
2023-09-06T07:36:20.308Z,3.20
2023-09-06T07:37:02.520Z,3.30
2023-09-06T07:37:44.717Z,2.75
2023-09-06T07:38:27.604Z,3.00
2023-09-06T07:39:10.013Z,3.10
2023-09-06T07:39:52.888Z,3.00
2023-09-06T07:40:34.865Z,2.80
2023-09-06T07:41:17.949Z,2.60
2023-09-06T07:42:00.100Z,3.22
2023-09-06T07:42:42.150Z,3.50
2023-09-06T07:43:25.798Z,2.70
2023-09-06T07:44:07.817Z,2.78
2023-09-06T07:44:49.665Z,2.88
2023-09-06T07:45:32.693Z,3.00
2023-09-06T07:46:14.820Z,3.40
2023-09-06T07:46:57.305Z,3.20
2023-09-06T07:47:39.407Z,2.75
2023-09-06T07:48:24.080Z,2.90
2023-09-06T07:49:06.528Z,2.97
2023-09-06T07:49:48.716Z,3.10
2023-09-06T07:50:30.787Z,3.28
2023-09-06T07:51:13.394Z,3.10
2023-09-06T07:51:55.272Z,3.13
2023-09-06T07:52:38.636Z,2.97
2023-09-06T07:53:21.698Z,2.95
2023-09-06T07:54:03.756Z,2.72
2023-09-06T07:54:45.910Z,3.10
2023-09-06T07:55:28.961Z,3.50
2023-09-06T07:56:10.866Z,3.30
2023-09-06T07:56:52.690Z,3.15
2023-09-06T07:57:34.962Z,2.92
2023-09-06T07:58:17.136Z,2.88
2023-09-06T07:58:59.200Z,3.00
2023-09-06T07:59:41.634Z,2.90
2023-09-06T08:00:23.649Z,3.00
2023-09-06T08:01:18.093Z,3.08
2023-09-06T08:02:01.219Z,3.10
2023-09-06T08:02:43.248Z,3.00
2023-09-06T08:03:26.638Z,2.95
2023-09-06T08:04:10.819Z,2.90
2023-09-06T08:04:52.753Z,2.95
2023-09-06T08:05:38.905Z,3.10
2023-09-06T08:06:21.307Z,3.15
2023-09-06T08:07:04.966Z,3.05
2023-09-06T08:07:47.549Z,3.10
2023-09-06T08:08:31.961Z,3.40
2023-09-06T08:09:14.715Z,2.90
2023-09-06T08:09:57.126Z,3.08
2023-09-06T08:10:40.963Z,2.70
2023-09-06T08:11:22.848Z,3.00
2023-09-06T08:12:06.691Z,3.20
2023-09-06T08:12:48.693Z,2.90
2023-09-06T08:13:30.831Z,3.15
2023-09-06T08:14:12.741Z,3.08
2023-09-06T08:14:54.636Z,2.88
2023-09-06T08:15:37.000Z,3.00
2023-09-06T08:16:20.445Z,2.80
2023-09-06T08:17:03.154Z,3.10
2023-09-06T08:17:51.238Z,3.03
2023-09-06T08:18:33.398Z,2.80
2023-09-06T08:19:15.895Z,2.60
2023-09-06T08:19:57.708Z,2.90
2023-09-06T08:20:39.804Z,3.28
2023-09-06T08:21:21.985Z,2.70
2023-09-06T08:22:04.219Z,2.90
2023-09-06T08:22:46.616Z,3.40
2023-09-06T08:23:28.556Z,3.00
2023-09-06T08:24:13.855Z,2.70
2023-09-06T08:24:55.817Z,2.65
2023-09-06T08:25:37.730Z,3.15
2023-09-06T08:26:19.673Z,3.00
2023-09-06T08:27:01.846Z,2.80
2023-09-06T08:27:44.071Z,3.00
2023-09-06T08:28:26.198Z,2.70
2023-09-06T08:29:08.240Z,3.20
2023-09-06T08:29:50.242Z,3.60
2023-09-06T08:30:32.389Z,3.50
2023-09-06T08:31:14.278Z,3.30
2023-09-06T08:31:56.389Z,3.42
2023-09-06T08:32:42.913Z,3.13
2023-09-06T08:33:25.890Z,3.30
2023-09-06T08:34:09.111Z,3.33
2023-09-06T08:34:51.182Z,3.47
2023-09-06T08:35:35.848Z,3.10
2023-09-06T08:36:17.750Z,3.10
2023-09-06T08:36:59.741Z,3.50
2023-09-06T08:37:42.105Z,3.40
2023-09-06T08:38:26.976Z,3.20
2023-09-06T08:39:09.000Z,3.22
2023-09-06T08:39:50.860Z,3.30
2023-09-06T08:40:33.185Z,3.45
2023-09-06T08:41:15.783Z,3.67
2023-09-06T08:41:59.372Z,3.83
2023-09-06T08:42:41.584Z,3.50
2023-09-06T08:43:24.769Z,3.10
2023-09-06T08:44:11.115Z,3.03
2023-09-06T08:44:53.977Z,3.13
2023-09-06T08:45:37.890Z,3.20
2023-09-06T08:46:23.698Z,3.05
2023-09-06T08:47:11.903Z,3.13
2023-09-06T08:47:56.588Z,3.38
2023-09-06T08:48:41.871Z,3.03
2023-09-06T08:49:24.724Z,3.08
2023-09-06T08:50:10.949Z,3.35
2023-09-06T08:50:55.965Z,3.13
2023-09-06T08:51:40.168Z,3.15
2023-09-06T08:52:22.797Z,3.50
2023-09-06T08:53:06.940Z,3.60
2023-09-06T08:53:51.767Z,3.20
2023-09-06T08:54:34.765Z,3.28
2023-09-06T08:55:16.730Z,3.55
2023-09-06T08:56:00.226Z,3.08
2023-09-06T08:56:43.620Z,3.25
2023-09-06T08:57:28.660Z,3.20
2023-09-06T08:58:12.156Z,3.45
2023-09-06T08:58:54.252Z,3.40
2023-09-06T08:59:37.089Z,3.40
2023-09-06T09:00:19.288Z,3.47
2023-09-06T09:01:03.071Z,3.40
2023-09-06T09:01:45.350Z,3.40
2023-09-06T09:02:28.839Z,3.10
2023-09-06T09:03:10.975Z,3.03
2023-09-06T09:03:53.301Z,2.90
2023-09-06T09:04:38.172Z,3.20
2023-09-06T09:05:23.025Z,2.80
2023-09-06T09:06:08.976Z,3.00
2023-09-06T09:06:50.873Z,3.25
2023-09-06T09:07:32.813Z,2.90
2023-09-06T09:08:14.661Z,2.85
2023-09-06T09:08:56.796Z,3.30
2023-09-06T09:10:02.751Z,3.60
2023-09-06T09:10:44.725Z,3.15
2023-09-06T09:11:26.708Z,3.42
2023-09-06T09:12:09.858Z,3.40
2023-09-06T09:12:53.415Z,2.90
2023-09-06T09:13:35.738Z,3.20
2023-09-06T09:14:22.676Z,3.55
2023-09-06T09:15:22.202Z,3.92
2023-09-06T09:16:10.229Z,3.65
2023-09-06T09:16:56.886Z,3.70
2023-09-06T09:17:56.996Z,3.40
2023-09-06T09:18:45.307Z,3.60
2023-09-06T09:19:28.195Z,3.30
2023-09-06T09:20:11.133Z,3.38
2023-09-06T09:20:55.231Z,3.50
2023-09-06T09:21:41.446Z,3.50
2023-09-06T09:22:24.953Z,3.60
2023-09-06T09:23:15.844Z,3.30
2023-09-06T09:23:58.632Z,3.47
2023-09-06T09:24:41.222Z,4.25
2023-09-06T09:25:24.603Z,3.83
2023-09-06T09:26:08.110Z,3.95
2023-09-06T09:26:50.274Z,3.73
2023-09-06T09:27:37.729Z,3.00
2023-09-06T09:28:19.858Z,3.40
2023-09-06T09:29:05.073Z,3.33
2023-09-06T09:29:48.592Z,3.40
2023-09-06T09:30:32.075Z,3.60
2023-09-06T09:31:16.936Z,3.10
2023-09-06T09:32:07.141Z,3.47
2023-09-06T09:32:51.917Z,3.38
2023-09-06T09:33:37.002Z,3.42
2023-09-06T09:34:19.169Z,3.92
2023-09-06T09:35:01.128Z,3.50
2023-09-06T09:35:44.286Z,2.90
2023-09-06T09:36:29.722Z,3.63
2023-09-06T09:37:11.897Z,3.10
2023-09-06T09:37:53.805Z,3.25
2023-09-06T09:38:35.791Z,3.30
2023-09-06T09:39:21.816Z,3.10
2023-09-06T09:40:29.277Z,3.70